createdAt,value
2019-02-11T00:01:16.459Z,1.60
2019-02-11T00:03:45.756Z,1.30
2019-02-11T00:06:15.039Z,1.10
2019-02-11T00:08:44.364Z,1.20
2019-02-11T00:11:14.230Z,1.90
2019-02-11T00:13:43.538Z,2.03
2019-02-11T00:16:13.075Z,2.77
2019-02-11T00:18:42.401Z,3.40
2019-02-11T00:21:11.997Z,3.80
2019-02-11T00:23:41.251Z,3.90
2019-02-11T00:26:10.449Z,4.03
2019-02-11T00:28:43.741Z,3.95
2019-02-11T00:31:13.177Z,4.90
2019-02-11T00:33:42.503Z,4.70
2019-02-11T00:36:11.790Z,4.77
2019-02-11T00:38:41.318Z,5.58
2019-02-11T00:41:10.572Z,5.20
2019-02-11T00:43:40.121Z,6.07
2019-02-11T00:46:09.413Z,5.00
2019-02-11T00:48:40.067Z,4.40
2019-02-11T00:51:09.342Z,4.30
2019-02-11T00:53:38.871Z,5.10
2019-02-11T00:56:09.716Z,4.83
2019-02-11T00:58:39.569Z,4.10
2019-02-11T01:01:08.974Z,4.20
2019-02-11T01:03:38.274Z,4.47
2019-02-11T01:06:07.654Z,4.40
2019-02-11T01:08:36.996Z,4.47
2019-02-11T01:11:06.250Z,5.07
2019-02-11T01:13:35.494Z,3.60
2019-02-11T01:16:04.777Z,2.90
2019-02-11T01:18:34.025Z,3.30
2019-02-11T01:21:03.372Z,3.83
2019-02-11T01:23:32.632Z,4.40
2019-02-11T01:26:01.820Z,2.40
2019-02-11T01:28:31.279Z,3.03
2019-02-11T01:31:00.514Z,3.70
2019-02-11T01:33:29.820Z,3.20
2019-02-11T01:35:59.081Z,3.37
2019-02-11T01:38:28.362Z,4.10
2019-02-11T01:40:57.887Z,3.85
2019-02-11T01:43:27.209Z,3.60
2019-02-11T01:45:56.726Z,5.20
2019-02-11T01:48:25.951Z,4.73
2019-02-11T01:50:55.462Z,4.27
2019-02-11T01:53:24.661Z,3.43
2019-02-11T01:55:53.858Z,5.00
2019-02-11T01:58:23.108Z,2.87
2019-02-11T02:00:52.574Z,3.40
2019-02-11T02:03:21.825Z,3.17
2019-02-11T02:05:51.392Z,3.00
2019-02-11T02:08:20.707Z,3.37
2019-02-11T02:10:49.979Z,2.40
2019-02-11T02:13:19.347Z,3.57
2019-02-11T02:15:48.626Z,3.60
2019-02-11T02:18:17.889Z,3.57
2019-02-11T02:20:47.513Z,4.10
2019-02-11T02:23:16.762Z,3.10
2019-02-11T02:25:46.004Z,3.60
2019-02-11T02:28:15.273Z,4.90
2019-02-11T02:30:44.557Z,4.03
2019-02-11T02:33:13.807Z,3.60
2019-02-11T02:35:43.349Z,4.30
2019-02-11T02:38:12.607Z,3.80
2019-02-11T02:40:41.923Z,4.80
2019-02-11T02:43:11.090Z,4.83
2019-02-11T02:45:40.366Z,5.50
2019-02-11T02:48:09.958Z,6.47
2019-02-11T02:50:39.301Z,4.50
2019-02-11T02:53:08.632Z,5.07
2019-02-11T02:55:38.213Z,5.60
2019-02-11T02:58:07.462Z,6.60
2019-02-11T03:00:36.724Z,4.37
2019-02-11T03:03:06.358Z,5.50
2019-02-11T03:05:36.093Z,7.17
2019-02-11T03:08:05.413Z,8.03
2019-02-11T03:10:34.798Z,7.00
2019-02-11T03:13:04.028Z,6.15
2019-02-11T03:15:33.309Z,4.80
2019-02-11T03:18:02.515Z,6.33
2019-02-11T03:20:32.060Z,5.40
2019-02-11T03:23:01.265Z,6.60
2019-02-11T03:25:30.548Z,5.07
2019-02-11T03:28:00.118Z,4.35
2019-02-11T03:30:29.303Z,5.20
2019-02-11T03:32:58.621Z,6.17
2019-02-11T03:35:27.878Z,5.50
2019-02-11T03:37:57.402Z,6.30
2019-02-11T03:40:26.636Z,5.60
2019-02-11T03:42:55.987Z,7.07
2019-02-11T03:45:25.224Z,7.57
2019-02-11T03:47:54.525Z,5.30
2019-02-11T03:50:24.066Z,4.87
2019-02-11T03:52:53.647Z,5.30
2019-02-11T03:55:22.954Z,5.13
2019-02-11T03:57:52.515Z,5.40
2019-02-11T04:00:21.772Z,6.00
2019-02-11T04:02:50.952Z,4.80
2019-02-11T04:05:20.525Z,6.90
2019-02-11T04:07:49.733Z,6.37
2019-02-11T04:10:18.988Z,4.63
2019-02-11T04:12:48.257Z,4.80
2019-02-11T04:15:17.600Z,5.20
2019-02-11T04:17:46.900Z,6.27
2019-02-11T04:20:17.741Z,5.73
2019-02-11T04:22:47.062Z,4.13
2019-02-11T04:25:16.253Z,5.43
2019-02-11T04:27:45.449Z,4.63
2019-02-11T04:30:16.139Z,5.27
2019-02-11T04:32:45.293Z,4.87
2019-02-11T04:35:14.495Z,3.97
2019-02-11T04:37:43.761Z,4.23
2019-02-11T04:40:13.126Z,4.20
2019-02-11T04:42:42.338Z,5.80
2019-02-11T04:45:11.717Z,3.70
2019-02-11T04:47:41.171Z,5.05
2019-02-11T04:50:10.521Z,5.83
2019-02-11T04:52:39.804Z,4.40
2019-02-11T04:55:09.324Z,3.77
2019-02-11T04:57:38.912Z,4.83
2019-02-11T05:00:09.225Z,6.07
2019-02-11T05:02:38.542Z,5.07
2019-02-11T05:05:08.821Z,3.70
2019-02-11T05:07:38.060Z,5.60
2019-02-11T05:10:09.378Z,4.83
2019-02-11T05:12:39.165Z,3.20
2019-02-11T05:15:09.358Z,4.10
2019-02-11T05:17:38.541Z,3.83
2019-02-11T05:20:08.310Z,3.70
2019-02-11T05:22:37.745Z,3.85
2019-02-11T05:25:06.953Z,5.20
2019-02-11T05:27:36.221Z,4.00
2019-02-11T05:30:05.749Z,4.67
2019-02-11T05:32:35.486Z,4.70
2019-02-11T05:35:05.324Z,4.40
2019-02-11T05:37:34.886Z,4.70
2019-02-11T05:40:04.302Z,3.33
2019-02-11T05:42:33.477Z,4.00
2019-02-11T05:45:03.001Z,4.60
2019-02-11T05:47:32.949Z,4.30
2019-02-11T05:50:02.464Z,3.87
2019-02-11T05:52:31.789Z,4.43
2019-02-11T05:55:01.021Z,3.70
2019-02-11T05:57:30.323Z,4.90
2019-02-11T05:59:59.718Z,4.67
2019-02-11T06:02:28.963Z,4.47
2019-02-11T06:04:58.723Z,4.20
2019-02-11T06:07:27.960Z,3.57
2019-02-11T06:09:57.153Z,3.67
2019-02-11T06:12:26.334Z,5.17
2019-02-11T06:15:03.939Z,3.57
2019-02-11T06:17:26.493Z,4.10
2019-02-11T06:19:55.768Z,3.60
2019-02-11T06:22:25.318Z,3.97
2019-02-11T06:24:54.600Z,4.00
2019-02-11T06:27:24.076Z,4.60
2019-02-11T06:29:53.279Z,4.85
2019-02-11T06:32:22.825Z,3.45
2019-02-11T06:34:52.142Z,4.03
2019-02-11T06:37:21.335Z,4.50
2019-02-11T06:39:50.795Z,4.17
2019-02-11T06:42:21.460Z,3.00
2019-02-11T06:44:50.957Z,3.87
2019-02-11T06:47:20.621Z,3.37
2019-02-11T06:49:49.880Z,4.13
2019-02-11T06:52:19.164Z,3.40
2019-02-11T06:54:48.829Z,3.47
2019-02-11T06:57:18.097Z,3.03
2019-02-11T06:59:47.297Z,2.30
2019-02-11T07:02:16.593Z,3.20
2019-02-11T07:04:45.841Z,2.30
2019-02-11T07:07:15.120Z,4.30
2019-02-11T07:09:44.352Z,2.20
2019-02-11T07:12:13.910Z,2.90
2019-02-11T07:14:43.227Z,3.97
2019-02-11T07:17:12.673Z,4.03
2019-02-11T07:19:41.984Z,3.60
2019-02-11T07:22:11.329Z,3.63
2019-02-11T07:24:40.564Z,2.30
2019-02-11T07:27:09.838Z,4.03
2019-02-11T07:29:39.074Z,2.60
2019-02-11T07:32:08.312Z,2.50
2019-02-11T07:34:36.967Z,3.07
2019-02-11T07:37:06.309Z,2.70
2019-02-11T07:39:35.480Z,3.37
2019-02-11T07:42:13.534Z,1.40
2019-02-11T07:44:46.168Z,2.80
2019-02-11T07:47:15.414Z,2.93
2019-02-11T07:49:44.712Z,1.60
2019-02-11T07:52:13.962Z,4.20
2019-02-11T07:54:43.144Z,3.10
2019-02-11T07:57:12.653Z,3.50
2019-02-11T07:59:42.675Z,2.90
2019-02-11T08:02:11.913Z,2.47
2019-02-11T08:04:41.309Z,1.33
2019-02-11T08:07:10.562Z,2.60
2019-02-11T08:09:39.755Z,2.40
2019-02-11T08:12:10.325Z,3.50
2019-02-11T08:14:39.538Z,3.50
2019-02-11T08:17:08.804Z,3.20
2019-02-11T08:19:38.068Z,2.97
2019-02-11T08:22:07.346Z,2.63
2019-02-11T08:24:36.533Z,3.20
2019-02-11T08:27:05.806Z,3.53
2019-02-11T08:29:35.491Z,3.17
2019-02-11T08:32:04.830Z,3.17
2019-02-11T08:34:34.066Z,2.57
2019-02-11T08:37:03.455Z,3.17
2019-02-11T08:39:32.728Z,2.70
2019-02-11T08:42:02.330Z,3.10
2019-02-11T08:44:31.590Z,2.67
2019-02-11T08:47:00.865Z,2.83
2019-02-11T08:49:30.153Z,4.07
2019-02-11T08:51:59.765Z,3.55
2019-02-11T08:54:29.005Z,3.63
2019-02-11T08:56:58.347Z,4.47
2019-02-11T08:59:27.596Z,4.50
2019-02-11T09:01:56.882Z,3.60
2019-02-11T09:04:26.137Z,3.70
2019-02-11T09:06:55.415Z,3.83
2019-02-11T09:09:24.834Z,3.20
2019-02-11T09:11:54.177Z,5.13
2019-02-11T09:14:23.438Z,3.30
2019-02-11T09:16:53.233Z,3.47
2019-02-11T09:19:22.432Z,4.93
2019-02-11T09:21:51.689Z,5.30
2019-02-11T09:24:20.925Z,4.37
2019-02-11T09:26:50.194Z,4.20
2019-02-11T09:29:19.373Z,3.20
2019-02-11T09:31:48.559Z,4.00
2019-02-11T09:34:17.905Z,3.70
2019-02-11T09:36:47.312Z,3.20
2019-02-11T09:39:16.748Z,3.90
2019-02-11T09:41:46.008Z,3.53
2019-02-11T09:44:15.247Z,3.53
2019-02-11T09:46:44.797Z,4.50
2019-02-11T09:49:14.085Z,4.80
2019-02-11T09:51:46.100Z,5.67
2019-02-11T09:54:15.305Z,5.33
2019-02-11T09:56:45.078Z,6.63
2019-02-11T09:59:14.369Z,6.03
2019-02-11T10:01:43.631Z,5.97
2019-02-11T10:04:14.730Z,6.33
2019-02-11T10:06:43.441Z,7.83
2019-02-11T10:09:12.222Z,6.90
2019-02-11T10:11:40.862Z,5.93
2019-02-11T10:14:09.551Z,6.50
2019-02-11T10:16:38.238Z,6.23
2019-02-11T10:19:06.912Z,6.40
2019-02-11T10:21:35.569Z,7.00
2019-02-11T10:24:04.255Z,5.63
2019-02-11T10:26:41.596Z,5.90
2019-02-11T10:29:10.320Z,6.97
2019-02-11T10:31:38.981Z,6.10
2019-02-11T10:34:07.645Z,6.00
2019-02-11T10:36:41.158Z,6.00
2019-02-11T10:39:10.208Z,6.77
2019-02-11T10:41:39.190Z,7.37
2019-02-11T10:44:07.886Z,6.73
2019-02-11T10:46:36.590Z,6.97
2019-02-11T10:49:05.375Z,6.17
2019-02-11T10:51:34.204Z,7.10
2019-02-11T10:54:02.933Z,5.90
2019-02-11T10:56:31.955Z,5.00
2019-02-11T10:59:00.626Z,4.70
2019-02-11T11:01:29.318Z,6.63
2019-02-11T11:03:58.034Z,4.30
2019-02-11T11:06:27.317Z,4.70
2019-02-11T11:08:57.136Z,4.67
2019-02-11T11:11:26.458Z,4.40
2019-02-11T11:13:55.735Z,3.20
2019-02-11T11:16:29.539Z,4.30
2019-02-11T11:18:56.446Z,3.65
2019-02-11T11:21:25.749Z,3.80
2019-02-11T11:23:55.331Z,3.60
2019-02-11T11:26:24.536Z,3.50
2019-02-11T11:28:53.974Z,5.10
2019-02-11T11:31:23.257Z,4.30
2019-02-11T11:33:52.558Z,3.50
2019-02-11T11:36:22.675Z,3.70
2019-02-11T11:38:51.964Z,3.80
2019-02-11T11:41:22.934Z,4.50
2019-02-11T11:43:53.686Z,3.87
2019-02-11T11:46:23.319Z,4.30
2019-02-11T11:48:53.839Z,5.27
2019-02-11T11:51:23.146Z,4.70
2019-02-11T11:53:52.429Z,4.57
2019-02-11T11:56:21.604Z,5.80
2019-02-11T11:58:50.896Z,4.70
2019-02-11T12:01:20.317Z,5.63
2019-02-11T12:03:49.641Z,5.70
2019-02-11T12:06:18.852Z,4.27
2019-02-11T12:08:48.191Z,5.80
2019-02-11T12:11:17.532Z,4.97
2019-02-11T12:13:46.907Z,4.90
2019-02-11T12:16:16.294Z,5.23
2019-02-11T12:18:45.678Z,5.00
2019-02-11T12:21:14.968Z,4.70
2019-02-11T12:23:44.566Z,4.70
2019-02-11T12:26:13.851Z,4.67
2019-02-11T12:28:43.056Z,4.67
2019-02-11T12:31:12.445Z,3.87
2019-02-11T12:33:41.619Z,5.83
2019-02-11T12:36:11.072Z,4.80
2019-02-11T12:38:40.374Z,5.27
2019-02-11T12:41:09.667Z,4.00
2019-02-11T12:43:39.397Z,4.30
2019-02-11T12:46:08.671Z,4.23
2019-02-11T12:48:38.035Z,4.00
2019-02-11T12:51:07.345Z,5.60
2019-02-11T12:53:36.637Z,3.50
2019-02-11T12:56:05.885Z,4.60
2019-02-11T12:58:35.375Z,5.53
2019-02-11T13:01:04.821Z,5.40
2019-02-11T13:03:34.170Z,5.50
2019-02-11T13:06:03.781Z,4.65
2019-02-11T13:08:32.971Z,5.00
2019-02-11T13:11:02.303Z,4.80
2019-02-11T13:13:31.597Z,5.40
2019-02-11T13:16:03.092Z,5.37
2019-02-11T13:18:32.649Z,4.60
2019-02-11T13:21:01.886Z,5.40
2019-02-11T13:23:31.317Z,5.23
2019-02-11T13:26:00.876Z,4.17
2019-02-11T13:28:30.486Z,4.92
2019-02-11T13:30:59.879Z,4.90
2019-02-11T13:33:29.465Z,5.33
2019-02-11T13:35:58.794Z,4.70
2019-02-11T13:38:28.330Z,4.45
2019-02-11T13:40:57.874Z,4.87
2019-02-11T13:43:27.564Z,5.83
2019-02-11T13:45:57.153Z,5.40
2019-02-11T13:48:26.476Z,5.77
2019-02-11T13:50:57.134Z,3.60
2019-02-11T13:53:29.540Z,4.77
2019-02-11T13:55:59.172Z,6.90
2019-02-11T13:58:28.430Z,6.27
2019-02-11T14:00:58.082Z,5.67
2019-02-11T14:03:27.361Z,5.80
2019-02-11T14:05:56.710Z,5.50
2019-02-11T14:08:26.016Z,5.77
2019-02-11T14:10:55.215Z,6.17
2019-02-11T14:13:24.596Z,6.13
2019-02-11T14:15:53.817Z,6.27
2019-02-11T14:18:23.189Z,5.53
2019-02-11T14:20:52.359Z,7.00
2019-02-11T14:23:21.595Z,5.87
2019-02-11T14:25:50.881Z,6.10
2019-02-11T14:28:23.025Z,5.80
2019-02-11T14:30:52.354Z,5.57
2019-02-11T14:33:21.649Z,5.93
2019-02-11T14:35:51.370Z,5.90
2019-02-11T14:38:20.660Z,7.50
2019-02-11T14:40:49.910Z,7.20
2019-02-11T14:43:19.171Z,6.53
2019-02-11T14:45:48.822Z,6.28
2019-02-11T14:48:27.687Z,6.67
2019-02-11T14:50:49.150Z,6.27
2019-02-11T14:53:18.401Z,6.50
2019-02-11T14:55:47.673Z,5.40
2019-02-11T14:58:16.946Z,5.80
2019-02-11T15:00:46.314Z,5.47
2019-02-11T15:03:15.555Z,6.33
2019-02-11T15:05:44.732Z,6.30
2019-02-11T15:08:13.976Z,5.30
2019-02-11T15:10:43.298Z,4.77
2019-02-11T15:13:12.597Z,4.73
2019-02-11T15:15:41.850Z,4.77
2019-02-11T15:18:11.357Z,3.72
2019-02-11T15:20:40.613Z,3.60
2019-02-11T15:23:09.834Z,3.50
2019-02-11T15:25:39.145Z,3.03
2019-02-11T15:28:08.485Z,3.30
2019-02-11T15:30:38.003Z,3.37
2019-02-11T15:33:07.355Z,2.90
2019-02-11T15:35:36.663Z,2.97
2019-02-11T15:38:05.981Z,2.90
2019-02-11T15:40:35.536Z,3.30
2019-02-11T15:43:04.797Z,2.47
2019-02-11T15:45:34.040Z,2.87
2019-02-11T15:48:03.574Z,2.77
2019-02-11T15:50:33.025Z,2.20
2019-02-11T15:53:02.569Z,2.80
2019-02-11T15:55:31.834Z,2.40
2019-02-11T15:58:01.116Z,2.13
2019-02-11T16:00:30.298Z,2.70
2019-02-11T16:02:59.557Z,2.43
2019-02-11T16:05:28.855Z,2.20
2019-02-11T16:07:58.361Z,2.27
2019-02-11T16:10:27.740Z,2.83
2019-02-11T16:12:57.032Z,2.20
2019-02-11T16:15:26.313Z,2.37
2019-02-11T16:17:55.556Z,2.57
2019-02-11T16:20:24.852Z,2.53
2019-02-11T16:22:54.201Z,1.90
2019-02-11T16:25:23.949Z,2.67
2019-02-11T16:27:53.191Z,2.43
2019-02-11T16:30:22.408Z,2.30
2019-02-11T16:32:51.657Z,2.13
2019-02-11T16:35:20.970Z,2.50
2019-02-11T16:37:50.389Z,1.80
2019-02-11T16:40:21.851Z,2.70
2019-02-11T16:42:51.135Z,2.50
2019-02-11T16:45:20.815Z,2.63
2019-02-11T16:47:50.459Z,2.47
2019-02-11T16:50:19.677Z,2.60
2019-02-11T16:52:48.999Z,2.60
2019-02-11T16:55:18.289Z,2.83
2019-02-11T16:57:47.591Z,2.90
2019-02-11T17:00:17.686Z,3.08
2019-02-11T17:02:47.009Z,2.83
2019-02-11T17:05:16.586Z,2.98
2019-02-11T17:07:46.174Z,2.53
2019-02-11T17:10:15.401Z,2.40
2019-02-11T17:12:44.706Z,3.60
2019-02-11T17:15:15.777Z,2.90
2019-02-11T17:17:45.091Z,3.80
2019-02-11T17:20:14.710Z,4.10
2019-02-11T17:22:44.485Z,3.70
2019-02-11T17:25:14.436Z,4.03
2019-02-11T17:27:43.701Z,4.10
2019-02-11T17:30:18.560Z,4.10
2019-02-11T17:32:47.923Z,3.70
2019-02-11T17:35:17.175Z,3.80
2019-02-11T17:37:46.438Z,4.13
2019-02-11T17:40:15.616Z,3.90
2019-02-11T17:42:44.997Z,4.23
2019-02-11T17:45:16.433Z,3.20
2019-02-11T17:47:45.851Z,3.27
2019-02-11T17:50:14.974Z,4.03
2019-02-11T17:52:44.338Z,3.53
2019-02-11T17:55:14.105Z,3.00
2019-02-11T17:57:43.401Z,4.53
2019-02-11T18:00:23.262Z,3.20
2019-02-11T18:02:52.482Z,4.20
2019-02-11T18:05:21.678Z,4.10
2019-02-11T18:07:51.294Z,4.10
2019-02-11T18:10:20.525Z,4.50
2019-02-11T18:12:49.789Z,3.07
2019-02-11T18:15:19.039Z,3.73
2019-02-11T18:17:48.281Z,3.10
2019-02-11T18:20:17.477Z,3.20
2019-02-11T18:22:46.956Z,3.20
2019-02-11T18:25:16.729Z,3.00
2019-02-11T18:27:46.000Z,3.10
2019-02-11T18:30:15.942Z,3.22
2019-02-11T18:32:45.243Z,2.90
2019-02-11T18:35:14.525Z,3.60
2019-02-11T18:37:43.821Z,2.83
2019-02-11T18:40:13.447Z,3.50
2019-02-11T18:42:42.709Z,4.40
2019-02-11T18:45:13.213Z,3.50
2019-02-11T18:47:42.359Z,3.93
2019-02-11T18:50:12.761Z,4.97
2019-02-11T18:52:41.948Z,3.47
2019-02-11T18:55:11.999Z,3.60
2019-02-11T18:57:41.402Z,3.50
2019-02-11T19:00:12.831Z,3.90
2019-02-11T19:02:42.112Z,3.63
2019-02-11T19:05:11.797Z,4.00
2019-02-11T19:07:41.052Z,3.47
2019-02-11T19:10:11.359Z,3.77
2019-02-11T19:12:40.606Z,4.50
2019-02-11T19:15:11.274Z,4.30
2019-02-11T19:17:40.446Z,4.13
2019-02-11T19:20:11.101Z,3.05
2019-02-11T19:22:40.371Z,4.03
2019-02-11T19:25:10.124Z,3.40
2019-02-11T19:27:39.360Z,3.53
2019-02-11T19:30:17.748Z,5.60
2019-02-11T19:32:47.107Z,3.70
2019-02-11T19:35:16.360Z,3.30
2019-02-11T19:37:45.952Z,4.07
2019-02-11T19:40:15.654Z,4.47
2019-02-11T19:42:45.011Z,3.77
2019-02-11T19:45:15.773Z,4.07
2019-02-11T19:47:45.252Z,4.63
2019-02-11T19:50:15.303Z,4.55
2019-02-11T19:52:44.581Z,3.30
2019-02-11T19:55:14.026Z,3.00
2019-02-11T19:57:43.291Z,4.00
2019-02-11T20:00:18.077Z,5.80
2019-02-11T20:02:47.509Z,3.93
2019-02-11T20:05:16.790Z,3.57
2019-02-11T20:07:46.086Z,3.03
2019-02-11T20:10:15.701Z,4.13
2019-02-11T20:12:45.013Z,3.33
2019-02-11T20:15:16.587Z,3.87
2019-02-11T20:17:45.995Z,5.10
2019-02-11T20:20:17.167Z,4.90
2019-02-11T20:22:46.377Z,4.03
2019-02-11T20:25:15.651Z,3.70
2019-02-11T20:27:44.962Z,3.70
2019-02-11T20:30:16.122Z,3.20
2019-02-11T20:32:45.380Z,2.63
2019-02-11T20:35:16.990Z,4.07
2019-02-11T20:37:46.639Z,5.60
2019-02-11T20:40:17.797Z,3.10
2019-02-11T20:42:47.346Z,3.40
2019-02-11T20:45:19.509Z,2.30
2019-02-11T20:47:49.062Z,3.42
2019-02-11T20:50:18.386Z,3.47
2019-02-11T20:52:47.867Z,3.02
2019-02-11T20:55:17.474Z,2.63
2019-02-11T20:57:46.738Z,3.37
2019-02-11T21:00:18.030Z,2.63
2019-02-11T21:02:47.332Z,2.20
2019-02-11T21:05:16.773Z,3.57
2019-02-11T21:07:45.946Z,2.60
2019-02-11T21:10:15.857Z,2.93
2019-02-11T21:12:45.142Z,3.07
2019-02-11T21:15:14.816Z,4.20
2019-02-11T21:17:44.081Z,3.20
2019-02-11T21:20:17.619Z,3.20
2019-02-11T21:22:47.229Z,3.47
2019-02-11T21:25:16.489Z,3.80
2019-02-11T21:27:46.085Z,2.67
2019-02-11T21:30:15.745Z,2.87
2019-02-11T21:32:45.017Z,3.17
2019-02-11T21:35:14.289Z,3.70
2019-02-11T21:37:43.597Z,3.27
2019-02-11T21:40:12.941Z,3.07
2019-02-11T21:42:42.217Z,3.30
2019-02-11T21:45:11.777Z,2.23
2019-02-11T21:47:41.062Z,3.33
2019-02-11T21:50:11.886Z,3.43
2019-02-11T21:52:41.346Z,3.00
2019-02-11T21:55:11.913Z,1.90
2019-02-11T21:57:42.421Z,2.03
2019-02-11T22:00:16.877Z,2.47
2019-02-11T22:02:46.103Z,2.50
2019-02-11T22:05:15.287Z,2.37
2019-02-11T22:07:44.502Z,2.47
2019-02-11T22:10:15.025Z,1.93
2019-02-11T22:12:44.325Z,2.30
2019-02-11T22:15:14.387Z,2.30
2019-02-11T22:17:43.921Z,2.83
2019-02-11T22:20:15.054Z,3.00
2019-02-11T22:22:44.630Z,2.67
2019-02-11T22:25:13.895Z,2.87
2019-02-11T22:27:43.432Z,2.40
2019-02-11T22:30:14.761Z,1.80
2019-02-11T22:32:44.069Z,2.63
2019-02-11T22:35:13.254Z,1.83
2019-02-11T22:37:42.490Z,2.70
2019-02-11T22:40:13.310Z,2.80
2019-02-11T22:42:42.570Z,2.00
2019-02-11T22:45:14.206Z,2.97
2019-02-11T22:47:43.486Z,1.90
2019-02-11T22:50:12.921Z,3.07
2019-02-11T22:52:42.215Z,2.60
2019-02-11T22:55:11.512Z,1.80
2019-02-11T22:57:41.260Z,3.87
2019-02-11T23:00:25.297Z,2.10
2019-02-11T23:02:54.581Z,2.20
2019-02-11T23:05:24.049Z,4.47
2019-02-11T23:07:53.550Z,2.50
2019-02-11T23:10:22.733Z,2.73
2019-02-11T23:12:52.020Z,3.40
2019-02-11T23:15:21.224Z,2.50
2019-02-11T23:17:50.396Z,2.20
2019-02-11T23:20:19.657Z,2.07
2019-02-11T23:22:49.156Z,2.33
2019-02-11T23:25:18.329Z,2.50
2019-02-11T23:27:47.548Z,2.90
2019-02-11T23:30:17.011Z,3.00
2019-02-11T23:32:46.279Z,3.47
2019-02-11T23:35:15.537Z,3.37
2019-02-11T23:37:45.510Z,2.70
2019-02-11T23:40:14.742Z,3.10
2019-02-11T23:42:44.275Z,2.65
2019-02-11T23:45:13.798Z,3.67
2019-02-11T23:47:43.259Z,3.52
2019-02-11T23:50:12.505Z,3.17
2019-02-11T23:52:41.853Z,3.60
2019-02-11T23:55:11.138Z,3.23
2019-02-11T23:57:40.750Z,3.15
